Time;durP1;ratioP1;P1;durP2;ratioP2;P2;SDS_P1;SDS_P2;PMS_P1;PMS_P2;Temp;Humidity;BMP_temperature;BMP_pressure;BME280_temperature;BME280_humidity;BME280_pressure;Samples;Min_cycle;Max_cycle;Signal;HPM_P1;HPM_P2
2022/04/02 00:01:08;;;;;;;3.17;1.10;;;;;;;;;;5055749;28;20055;-85
2022/04/02 00:03:33;;;;;;;2.13;0.95;;;;;;;;;;5073212;28;20122;-85
2022/04/02 00:05:59;;;;;;;4.72;1.10;;;;;;;;;;5073235;28;20024;-85
2022/04/02 00:08:25;;;;;;;2.58;1.20;;;;;;;;;;5071926;28;20039;-84
2022/04/02 00:10:51;;;;;;;1.48;1.00;;;;;;;;;;5071631;28;20024;-84
2022/04/02 00:13:17;;;;;;;1.10;0.95;;;;;;;;;;5089939;28;20055;-84
2022/04/02 00:15:42;;;;;;;1.42;1.17;;;;;;;;;;5093541;28;20130;-84
2022/04/02 00:18:08;;;;;;;3.47;1.20;;;;;;;;;;5075117;28;20031;-84
2022/04/02 00:20:33;;;;;;;2.10;1.20;;;;;;;;;;5074962;28;20028;-84
2022/04/02 00:25:43;;;;;;;9.43;1.25;;;;;;;;;;5094052;28;20055;-83
2022/04/02 00:28:08;;;;;;;1.25;1.10;;;;;;;;;;5075295;28;20462;-84
2022/04/02 00:30:34;;;;;;;1.33;1.17;;;;;;;;;;5093225;28;20131;-83
2022/04/02 00:33:00;;;;;;;1.10;1.00;;;;;;;;;;5058351;28;20032;-83
2022/04/02 00:35:25;;;;;;;0.98;0.90;;;;;;;;;;5093023;28;20088;-84
2022/04/02 00:37:51;;;;;;;2.33;1.05;;;;;;;;;;5092862;28;20028;-84
2022/04/02 00:40:16;;;;;;;1.10;1.00;;;;;;;;;;5093170;28;20463;-84
2022/04/02 00:42:42;;;;;;;2.42;1.17;;;;;;;;;;5074886;28;20042;-84
2022/04/02 00:45:07;;;;;;;2.88;1.10;;;;;;;;;;5074753;28;20032;-82
2022/04/02 00:47:32;;;;;;;1.40;0.98;;;;;;;;;;5075078;28;20032;-84
2022/04/02 00:49:58;;;;;;;1.20;1.10;;;;;;;;;;5092860;28;20059;-84
2022/04/02 00:52:27;;;;;;;1.10;1.00;;;;;;;;;;5075317;28;20028;-85
2022/04/02 00:54:53;;;;;;;0.90;0.90;;;;;;;;;;5074951;28;20024;-86
2022/04/02 00:57:19;;;;;;;1.08;0.98;;;;;;;;;;5058118;28;20038;-86
2022/04/02 00:59:45;;;;;;;1.65;1.20;;;;;;;;;;5074955;28;20028;-85
2022/04/02 01:02:12;;;;;;;1.13;1.02;;;;;;;;;;5058193;28;20069;-85
2022/04/02 01:04:37;;;;;;;1.40;1.02;;;;;;;;;;5074782;28;20020;-85
2022/04/02 01:07:03;;;;;;;1.10;1.00;;;;;;;;;;5092914;28;20039;-85
2022/04/02 01:09:29;;;;;;;1.42;1.10;;;;;;;;;;5093230;28;20095;-84
2022/04/02 01:11:56;;;;;;;1.48;1.00;;;;;;;;;;5074574;28;20056;-85
2022/04/02 01:14:22;;;;;;;2.25;1.00;;;;;;;;;;5074711;28;20036;-85
2022/04/02 01:16:47;;;;;;;1.30;1.20;;;;;;;;;;5074436;28;20119;-86
2022/04/02 01:19:13;;;;;;;2.20;0.95;;;;;;;;;;5058089;28;20527;-85
2022/04/02 01:21:38;;;;;;;3.20;0.98;;;;;;;;;;5074883;28;20119;-85
2022/04/02 01:24:04;;;;;;;2.17;1.00;;;;;;;;;;5076448;28;20028;-86
2022/04/02 01:26:30;;;;;;;2.63;1.00;;;;;;;;;;5061666;28;20398;-85
2022/04/02 01:28:57;;;;;;;3.08;1.00;;;;;;;;;;5096743;28;20028;-85
2022/04/02 01:31:22;;;;;;;2.15;1.08;;;;;;;;;;5061598;28;20031;-85
2022/04/02 01:33:49;;;;;;;2.72;1.15;;;;;;;;;;5096706;28;20028;-83
2022/04/02 01:36:15;;;;;;;1.98;1.08;;;;;;;;;;5078313;28;20034;-83
2022/04/02 01:38:41;;;;;;;1.27;1.13;;;;;;;;;;5096859;28;20028;-82
2022/04/02 01:41:06;;;;;;;1.88;1.02;;;;;;;;;;5078475;28;20112;-83
2022/04/02 01:43:33;;;;;;;1.42;0.80;;;;;;;;;;5096826;28;20491;-83
2022/04/02 01:45:59;;;;;;;1.75;1.10;;;;;;;;;;5061990;28;20028;-83
2022/04/02 01:48:25;;;;;;;0.80;0.80;;;;;;;;;;5096686;28;20035;-83
2022/04/02 01:50:51;;;;;;;1.83;1.10;;;;;;;;;;5078315;28;20020;-83
2022/04/02 01:53:17;;;;;;;1.42;1.10;;;;;;;;;;5078362;28;20023;-84
2022/04/02 01:55:42;;;;;;;1.75;1.00;;;;;;;;;;5077990;28;20053;-83
2022/04/02 01:58:08;;;;;;;6.05;1.10;;;;;;;;;;5077827;28;20060;-83
2022/04/02 02:00:33;;;;;;;1.90;1.10;;;;;;;;;;5077916;28;20034;-82
2022/04/02 02:02:59;;;;;;;5.28;1.15;;;;;;;;;;5077703;28;20024;-83
2022/04/02 02:05:25;;;;;;;1.00;0.90;;;;;;;;;;5077681;28;20379;-84
2022/04/02 02:07:50;;;;;;;1.67;1.00;;;;;;;;;;5095620;28;20064;-84
2022/04/02 02:10:16;;;;;;;1.48;1.17;;;;;;;;;;5077554;28;20032;-84
2022/04/02 02:12:42;;;;;;;2.88;1.00;;;;;;;;;;5077533;28;20132;-84
2022/04/02 02:15:16;;;;;;;0.77;0.77;;;;;;;;;;5095867;28;20039;-84
2022/04/02 02:17:43;;;;;;;1.30;1.20;;;;;;;;;;5078747;28;20020;-84
2022/04/02 02:20:09;;;;;;;1.25;1.00;;;;;;;;;;5077367;28;20475;-84
2022/04/02 02:22:34;;;;;;;0.98;0.90;;;;;;;;;;5061119;28;20028;-84
2022/04/02 02:24:59;;;;;;;3.08;0.90;;;;;;;;;;5060705;28;20096;-84
2022/04/02 02:27:25;;;;;;;1.48;1.00;;;;;;;;;;5077535;28;20120;-85
2022/04/02 02:29:52;;;;;;;1.65;1.10;;;;;;;;;;5060932;28;20555;-85
2022/04/02 02:32:17;;;;;;;0.98;0.88;;;;;;;;;;5095458;28;20089;-85
2022/04/02 02:37:30;;;;;;;1.88;1.00;;;;;;;;;;5095678;28;20039;-85
2022/04/02 02:39:55;;;;;;;0.80;0.80;;;;;;;;;;5077451;28;20036;-84
2022/04/02 02:42:21;;;;;;;0.90;0.80;;;;;;;;;;5061070;28;20035;-83
2022/04/02 02:44:46;;;;;;;1.67;1.10;;;;;;;;;;5077023;28;20371;-83
2022/04/02 02:47:12;;;;;;;0.90;0.90;;;;;;;;;;5095382;28;20039;-87
2022/04/02 02:49:37;;;;;;;1.40;0.98;;;;;;;;;;5095011;28;20024;-84
2022/04/02 02:52:03;;;;;;;1.48;0.90;;;;;;;;;;5095426;28;20032;-84
2022/04/02 02:54:28;;;;;;;0.95;0.80;;;;;;;;;;5060888;28;20101;-84
2022/04/02 02:56:54;;;;;;;1.10;1.00;;;;;;;;;;5076900;28;20016;-84
2022/04/02 02:59:19;;;;;;;2.03;1.13;;;;;;;;;;5077211;28;20039;-83
2022/04/02 03:01:45;;;;;;;0.98;0.88;;;;;;;;;;5094767;28;20111;-83
2022/04/02 03:04:10;;;;;;;1.00;0.95;;;;;;;;;;5076390;28;20032;-82
2022/04/02 03:06:35;;;;;;;1.00;0.90;;;;;;;;;;5076606;28;20036;-83
2022/04/02 03:09:01;;;;;;;1.65;0.90;;;;;;;;;;5094793;28;20035;-83
2022/04/02 03:11:26;;;;;;;1.25;1.00;;;;;;;;;;5095009;28;20045;-83
2022/04/02 03:13:52;;;;;;;0.82;0.82;;;;;;;;;;5076716;28;20044;-83
2022/04/02 03:16:17;;;;;;;1.10;1.00;;;;;;;;;;5076350;28;20070;-83
2022/04/02 03:18:43;;;;;;;0.90;0.90;;;;;;;;;;5094951;28;20119;-83
2022/04/02 03:21:08;;;;;;;1.40;0.80;;;;;;;;;;5094757;28;20024;-83
2022/04/02 03:23:34;;;;;;;1.23;0.90;;;;;;;;;;5059479;28;20063;-83
2022/04/02 03:25:59;;;;;;;0.95;0.85;;;;;;;;;;5059633;28;20031;-83
2022/04/02 03:28:24;;;;;;;4.63;1.10;;;;;;;;;;5095437;28;20068;-85
2022/04/02 03:30:50;;;;;;;1.00;0.90;;;;;;;;;;5095258;28;20024;-84
2022/04/02 03:33:16;;;;;;;1.05;0.90;;;;;;;;;;5094404;28;20085;-86
2022/04/02 03:35:44;;;;;;;0.80;0.80;;;;;;;;;;5076202;28;20035;-86
2022/04/02 03:38:10;;;;;;;1.10;1.00;;;;;;;;;;5059363;28;20390;-85
2022/04/02 03:40:35;;;;;;;0.90;0.90;;;;;;;;;;5075870;28;20028;-84
2022/04/02 03:43:01;;;;;;;0.88;0.88;;;;;;;;;;5094349;28;20378;-84
2022/04/02 03:45:26;;;;;;;1.88;1.00;;;;;;;;;;5075764;28;20024;-85
2022/04/02 03:47:52;;;;;;;1.58;1.08;;;;;;;;;;5076009;28;20034;-86
2022/04/02 03:50:17;;;;;;;0.90;0.90;;;;;;;;;;5075712;28;20024;-87
2022/04/02 03:52:43;;;;;;;0.80;0.80;;;;;;;;;;5075613;28;20436;-87
2022/04/02 03:55:09;;;;;;;0.80;0.80;;;;;;;;;;5059107;28;20046;-84
2022/04/02 03:57:35;;;;;;;1.58;0.80;;;;;;;;;;5093971;28;20111;-85
2022/04/02 04:00:01;;;;;;;1.95;1.00;;;;;;;;;;5075662;28;20391;-84
2022/04/02 04:02:26;;;;;;;1.55;1.10;;;;;;;;;;5058597;28;20039;-84
2022/04/02 04:04:52;;;;;;;0.75;0.70;;;;;;;;;;5093687;28;20031;-84
2022/04/02 04:07:18;;;;;;;1.45;0.90;;;;;;;;;;5075423;28;20028;-86
2022/04/02 04:09:44;;;;;;;0.95;0.88;;;;;;;;;;5093873;28;20047;-84
2022/04/02 04:12:10;;;;;;;0.95;0.95;;;;;;;;;;5075429;28;20044;-84
2022/04/02 04:14:35;;;;;;;1.27;1.00;;;;;;;;;;5075316;28;20026;-82
2022/04/02 04:17:01;;;;;;;1.27;1.00;;;;;;;;;;5042343;28;20020;-84
2022/04/02 04:19:27;;;;;;;1.85;1.15;;;;;;;;;;5075411;28;20028;-83
2022/04/02 04:21:53;;;;;;;5.13;1.00;;;;;;;;;;5093462;28;20028;-84
2022/04/02 04:24:19;;;;;;;1.98;0.90;;;;;;;;;;5093365;28;20095;-84
2022/04/02 04:26:45;;;;;;;3.20;1.20;;;;;;;;;;5075288;28;20103;-83
2022/04/02 04:29:10;;;;;;;4.38;1.10;;;;;;;;;;5093519;28;20028;-83
2022/04/02 04:31:36;;;;;;;3.67;0.98;;;;;;;;;;5093058;28;20074;-83
2022/04/02 04:34:02;;;;;;;1.27;1.05;;;;;;;;;;5057713;28;20032;-84
2022/04/02 04:36:29;;;;;;;1.05;0.90;;;;;;;;;;5074794;28;20448;-84
2022/04/02 04:38:55;;;;;;;5.25;1.23;;;;;;;;;;5074720;28;20463;-83
2022/04/02 04:41:20;;;;;;;1.63;1.17;;;;;;;;;;5074760;28;20028;-84
2022/04/02 04:43:49;;;;;;;3.70;1.50;;;;;;;;;;5092558;28;20498;-83
2022/04/02 04:46:16;;;;;;;1.83;1.20;;;;;;;;;;5074891;28;20032;-83
2022/04/02 04:48:42;;;;;;;1.10;1.00;;;;;;;;;;5074472;28;20028;-83
2022/04/02 04:51:09;;;;;;;3.63;1.30;;;;;;;;;;5074382;28;20032;-83
2022/04/02 04:53:34;;;;;;;1.35;1.20;;;;;;;;;;5057378;28;20024;-82
2022/04/02 04:56:00;;;;;;;1.77;1.20;;;;;;;;;;5092912;28;20039;-82
2022/04/02 04:58:27;;;;;;;2.25;1.30;;;;;;;;;;5095751;28;20039;-83
2022/04/02 05:00:53;;;;;;;3.15;1.20;;;;;;;;;;5079731;28;20107;-82
2022/04/02 05:03:20;;;;;;;2.17;1.20;;;;;;;;;;5080714;28;20095;-83
2022/04/02 05:05:46;;;;;;;1.48;1.10;;;;;;;;;;5102369;28;20378;-82
2022/04/02 05:08:13;;;;;;;2.22;1.40;;;;;;;;;;5079385;28;20339;-83
2022/04/02 05:10:40;;;;;;;2.20;1.40;;;;;;;;;;5098292;28;20031;-83
2022/04/02 05:13:07;;;;;;;2.20;1.25;;;;;;;;;;5044423;28;20109;-84
2022/04/02 05:15:35;;;;;;;3.00;1.42;;;;;;;;;;5077865;28;20024;-82
2022/04/02 05:18:01;;;;;;;2.75;1.33;;;;;;;;;;5061023;28;20026;-83
2022/04/02 05:20:27;;;;;;;2.85;1.70;;;;;;;;;;5043976;28;20028;-81
2022/04/02 05:22:52;;;;;;;1.98;1.60;;;;;;;;;;5076754;28;20162;-82
2022/04/02 05:25:18;;;;;;;1.50;1.38;;;;;;;;;;5043589;28;20032;-84
2022/04/02 05:27:43;;;;;;;2.00;1.50;;;;;;;;;;5076613;28;20115;-84
2022/04/02 05:30:11;;;;;;;4.20;1.60;;;;;;;;;;5077453;28;20020;-84
2022/04/02 05:32:37;;;;;;;3.40;1.70;;;;;;;;;;5076286;28;20017;-83
2022/04/02 05:35:03;;;;;;;2.72;1.70;;;;;;;;;;5075917;28;20088;-83
2022/04/02 05:37:28;;;;;;;4.45;1.88;;;;;;;;;;5060219;28;20025;-84
2022/04/02 05:39:54;;;;;;;1.77;1.50;;;;;;;;;;5078739;28;20102;-83
2022/04/02 05:42:21;;;;;;;2.55;1.80;;;;;;;;;;5063539;28;20109;-85
2022/04/02 05:44:46;;;;;;;3.20;1.90;;;;;;;;;;5060010;28;20028;-84
2022/04/02 05:47:12;;;;;;;2.10;1.90;;;;;;;;;;5077532;28;20036;-84
2022/04/02 05:49:37;;;;;;;5.10;2.22;;;;;;;;;;5077006;28;20115;-86
2022/04/02 05:52:04;;;;;;;7.93;2.45;;;;;;;;;;5060829;28;20074;-84
2022/04/02 05:54:30;;;;;;;6.75;3.03;;;;;;;;;;5060193;28;20401;-84
2022/04/02 05:56:55;;;;;;;4.43;2.33;;;;;;;;;;5077133;28;20115;-82
2022/04/02 05:59:21;;;;;;;6.10;2.72;;;;;;;;;;5075663;28;20132;-82
2022/04/02 06:01:47;;;;;;;8.20;2.97;;;;;;;;;;5059809;28;20518;-81
2022/04/02 06:04:13;;;;;;;6.05;2.22;;;;;;;;;;5076533;28;20183;-83
2022/04/02 06:06:38;;;;;;;8.70;2.50;;;;;;;;;;5080613;28;20060;-84
2022/04/02 06:09:04;;;;;;;5.55;2.25;;;;;;;;;;5078070;28;20028;-83
2022/04/02 06:11:30;;;;;;;4.72;2.35;;;;;;;;;;5077052;28;20028;-82
2022/04/02 06:13:56;;;;;;;4.72;2.20;;;;;;;;;;5097580;28;20055;-82
2022/04/02 06:16:23;;;;;;;2.78;2.10;;;;;;;;;;5078783;28;20108;-83
2022/04/02 06:18:52;;;;;;;8.40;2.40;;;;;;;;;;5065086;28;20055;-80
2022/04/02 06:21:18;;;;;;;3.38;2.08;;;;;;;;;;5079382;28;20050;-83
2022/04/02 06:23:44;;;;;;;4.85;1.98;;;;;;;;;;5079393;28;20016;-81
2022/04/02 06:26:09;;;;;;;2.78;2.10;;;;;;;;;;5078396;28;20383;-82
2022/04/02 06:28:37;;;;;;;4.13;2.42;;;;;;;;;;5097367;28;20497;-82
2022/04/02 06:31:03;;;;;;;6.40;3.55;;;;;;;;;;5061502;28;20110;-81
2022/04/02 06:33:29;;;;;;;2.90;2.28;;;;;;;;;;5061851;28;20020;-81
2022/04/02 06:35:54;;;;;;;4.57;2.75;;;;;;;;;;5096730;28;20471;-83
2022/04/02 06:38:20;;;;;;;1.92;1.65;;;;;;;;;;5061479;28;20040;-82
2022/04/02 06:40:45;;;;;;;9.60;2.13;;;;;;;;;;5096476;28;20035;-83
2022/04/02 06:43:11;;;;;;;4.60;2.10;;;;;;;;;;5096120;28;20451;-83
2022/04/02 06:45:36;;;;;;;3.03;1.95;;;;;;;;;;5078552;28;20032;-82
2022/04/02 06:48:03;;;;;;;3.88;1.75;;;;;;;;;;5078187;28;20478;-82
2022/04/02 06:50:28;;;;;;;4.13;1.80;;;;;;;;;;5078539;28;20046;-87
2022/04/02 06:52:54;;;;;;;4.47;2.10;;;;;;;;;;5078477;28;20114;-85
2022/04/02 06:55:19;;;;;;;3.83;1.95;;;;;;;;;;5078391;28;20024;-83
2022/04/02 06:57:53;;;;;;;2.17;1.52;;;;;;;;;;5095753;28;20035;-83
2022/04/02 07:00:19;;;;;;;5.78;1.90;;;;;;;;;;5095597;28;20054;-82
2022/04/02 07:02:44;;;;;;;2.85;1.83;;;;;;;;;;5077026;28;20020;-82
2022/04/02 07:05:10;;;;;;;3.25;1.73;;;;;;;;;;5078037;28;20031;-82
2022/04/02 07:07:36;;;;;;;4.25;1.70;;;;;;;;;;5078344;28;20058;-82
2022/04/02 07:10:04;;;;;;;9.40;2.60;;;;;;;;;;5078431;28;20042;-82
2022/04/02 07:12:29;;;;;;;6.47;2.00;;;;;;;;;;5077997;28;20052;-81
2022/04/02 07:14:55;;;;;;;3.25;1.73;;;;;;;;;;5095276;28;20070;-82
2022/04/02 07:17:20;;;;;;;3.08;1.88;;;;;;;;;;5096222;28;20467;-81
2022/04/02 07:19:47;;;;;;;5.10;2.50;;;;;;;;;;5061484;28;20028;-82
2022/04/02 07:22:14;;;;;;;3.00;1.70;;;;;;;;;;5095298;28;20417;-81
2022/04/02 07:24:40;;;;;;;4.60;2.05;;;;;;;;;;5080786;28;20024;-81
2022/04/02 07:27:07;;;;;;;3.83;2.00;;;;;;;;;;5077387;28;20471;-81
2022/04/02 07:29:33;;;;;;;3.38;1.90;;;;;;;;;;5076685;28;20035;-81
2022/04/02 07:31:58;;;;;;;3.65;2.00;;;;;;;;;;5077540;28;20028;-80
2022/04/02 07:34:24;;;;;;;3.22;1.90;;;;;;;;;;5061584;28;20077;-80
2022/04/02 07:37:05;;;;;;;2.85;1.75;;;;;;;;;;5060188;28;20043;-80
2022/04/02 07:39:33;;;;;;;2.92;1.83;;;;;;;;;;5076328;28;20043;-81
2022/04/02 07:42:01;;;;;;;3.08;1.80;;;;;;;;;;5095170;28;20042;-81
2022/04/02 07:44:33;;;;;;;3.28;1.88;;;;;;;;;;5094568;28;20390;-81
2022/04/02 07:46:59;;;;;;;1.73;1.58;;;;;;;;;;5076443;28;20045;-81
2022/04/02 07:49:28;;;;;;;2.95;2.03;;;;;;;;;;5076773;28;20024;-81
2022/04/02 07:51:54;;;;;;;4.50;1.73;;;;;;;;;;5094020;28;20031;-82
2022/04/02 07:54:25;;;;;;;2.80;2.20;;;;;;;;;;5076409;28;20036;-82
2022/04/02 07:56:56;;;;;;;2.25;1.67;;;;;;;;;;5059453;28;20035;-82
2022/04/02 07:59:34;;;;;;;2.58;1.65;;;;;;;;;;5094546;28;20028;-81
2022/04/02 08:02:01;;;;;;;3.20;1.85;;;;;;;;;;5076070;28;20035;-81
2022/04/02 08:04:27;;;;;;;3.47;1.55;;;;;;;;;;5075653;28;20016;-82
2022/04/02 08:06:53;;;;;;;2.63;1.90;;;;;;;;;;5093645;28;20332;-82
2022/04/02 08:09:19;;;;;;;5.53;1.85;;;;;;;;;;5093716;28;20028;-82
2022/04/02 08:11:48;;;;;;;2.70;1.60;;;;;;;;;;5093558;28;20455;-82
2022/04/02 08:14:14;;;;;;;3.55;1.70;;;;;;;;;;5093337;28;20032;-82
2022/04/02 08:16:43;;;;;;;2.15;1.80;;;;;;;;;;5075428;28;20036;-82
2022/04/02 08:19:09;;;;;;;6.60;1.83;;;;;;;;;;5059561;28;20032;-82
2022/04/02 08:21:35;;;;;;;2.55;1.80;;;;;;;;;;5075548;28;20028;-82
2022/04/02 08:24:02;;;;;;;1.85;1.60;;;;;;;;;;5075270;28;20023;-82
2022/04/02 08:26:49;;;;;;;3.92;1.85;;;;;;;;;;5058592;28;20039;-82
2022/04/02 08:29:33;;;;;;;2.72;1.48;;;;;;;;;;5059405;28;20104;-82
2022/04/02 08:32:17;;;;;;;2.10;1.70;;;;;;;;;;5075501;28;20020;-82
2022/04/02 08:34:52;;;;;;;;;;;;;;;;;;5094807;28;20439;-82
2022/04/02 08:37:26;;;;;;;3.75;1.75;;;;;;;;;;5075965;28;20352;-82
2022/04/02 08:40:02;;;;;;;;;;;;;;;;;;5076759;28;20138;-83
2022/04/02 08:42:44;;;;;;;2.92;1.77;;;;;;;;;;5059096;28;20282;-82
2022/04/02 08:45:11;;;;;;;2.10;1.90;;;;;;;;;;5075006;28;20047;-82
2022/04/02 08:48:21;;;;;;;4.22;1.90;;;;;;;;;;5074939;28;20027;-82
2022/04/02 08:50:48;;;;;;;2.13;1.50;;;;;;;;;;5074557;28;20370;-83
2022/04/02 08:53:46;;;;;;;4.38;1.40;;;;;;;;;;5074745;28;20053;-82
2022/04/02 08:56:17;;;;;;;1.65;1.40;;;;;;;;;;5037473;28;20036;-82
2022/04/02 08:58:52;;;;;;;2.35;1.52;;;;;;;;;;5074886;28;20023;-82
2022/04/02 09:01:27;;;;;;;2.55;1.38;;;;;;;;;;5093363;28;20149;-83
2022/04/02 09:04:28;;;;;;;2.92;1.20;;;;;;;;;;5093256;28;20439;-82
2022/04/02 09:07:21;;;;;;;2.40;1.50;;;;;;;;;;5004138;28;20052;-82
2022/04/02 09:09:58;;;;;;;1.75;1.30;;;;;;;;;;5074854;28;20047;-82
2022/04/02 09:12:51;;;;;;;1.90;1.33;;;;;;;;;;5093065;28;20084;-82
2022/04/02 09:15:55;;;;;;;1.38;1.20;;;;;;;;;;5075604;28;20119;-82
2022/04/02 09:18:51;;;;;;;1.23;1.10;;;;;;;;;;5074593;28;20031;-82
2022/04/02 09:21:29;;;;;;;1.60;1.10;;;;;;;;;;5075253;28;20016;-82
2022/04/02 09:24:14;;;;;;;2.58;1.30;;;;;;;;;;5074940;28;20035;-82
2022/04/02 09:26:39;;;;;;;1.77;1.25;;;;;;;;;;5058184;28;20024;-81
2022/04/02 09:29:16;;;;;;;1.23;1.13;;;;;;;;;;5074768;28;20400;-82
2022/04/02 09:32:19;;;;;;;1.65;1.20;;;;;;;;;;5074872;28;20020;-82
2022/04/02 09:35:01;;;;;;;2.90;1.40;;;;;;;;;;5075272;28;20462;-82
2022/04/02 09:37:33;;;;;;;1.15;0.93;;;;;;;;;;5074649;28;20042;-86
2022/04/02 09:40:05;;;;;;;1.15;1.00;;;;;;;;;;5074384;28;20055;-82
2022/04/02 09:42:47;;;;;;;1.35;1.02;;;;;;;;;;5092614;28;20020;-82
2022/04/02 09:45:22;;;;;;;1.60;1.15;;;;;;;;;;5077648;28;20020;-82
2022/04/02 09:47:48;;;;;;;2.20;1.00;;;;;;;;;;5078557;28;20059;-82
2022/04/02 09:50:16;;;;;;;1.85;1.17;;;;;;;;;;5078961;28;20028;-82
2022/04/02 09:52:54;;;;;;;2.00;1.40;;;;;;;;;;5097439;28;20394;-82
2022/04/02 09:55:35;;;;;;;3.60;1.10;;;;;;;;;;5061674;28;20024;-81
2022/04/02 09:58:33;;;;;;;1.63;1.08;;;;;;;;;;5078931;28;20076;-82
2022/04/02 10:01:22;;;;;;;1.63;0.90;;;;;;;;;;5059203;28;20432;-82
2022/04/02 10:03:52;;;;;;;1.42;1.20;;;;;;;;;;5077496;28;20016;-80
2022/04/02 10:06:20;;;;;;;1.60;1.15;;;;;;;;;;5061259;28;20081;-82
2022/04/02 10:08:45;;;;;;;2.53;1.00;;;;;;;;;;5097444;28;20032;-82
2022/04/02 10:11:11;;;;;;;1.88;1.05;;;;;;;;;;5097732;28;20474;-82
2022/04/02 10:13:38;;;;;;;1.23;1.00;;;;;;;;;;5078588;28;20122;-81
2022/04/02 10:16:05;;;;;;;1.10;1.00;;;;;;;;;;5061942;28;20032;-81
2022/04/02 10:18:34;;;;;;;1.17;1.00;;;;;;;;;;5078243;28;20154;-81
2022/04/02 10:21:03;;;;;;;0.90;0.90;;;;;;;;;;5078790;28;20028;-82
2022/04/02 10:23:30;;;;;;;1.02;0.93;;;;;;;;;;5077896;28;20441;-82
2022/04/02 10:26:15;;;;;;;1.08;0.98;;;;;;;;;;5078317;28;20024;-83
2022/04/02 10:29:02;;;;;;;1.13;1.02;;;;;;;;;;5079103;28;20020;-83
2022/04/02 10:31:35;;;;;;;2.03;1.20;;;;;;;;;;5078349;28;20028;-89
2022/04/02 10:34:37;;;;;;;1.92;1.05;;;;;;;;;;5079958;28;20099;-87
2022/04/02 10:37:18;;;;;;;3.13;1.13;;;;;;;;;;5028560;28;20032;-85
2022/04/02 10:39:57;;;;;;;2.45;1.30;;;;;;;;;;5080634;28;20388;-87
2022/04/02 10:42:33;;;;;;;2.30;1.45;;;;;;;;;;5062303;28;20031;-85
2022/04/02 10:45:02;;;;;;;4.13;2.42;;;;;;;;;;5078509;28;20074;-86
2022/04/02 10:47:28;;;;;;;3.70;2.20;;;;;;;;;;5079671;28;20038;-86
2022/04/02 10:50:03;;;;;;;3.58;1.90;;;;;;;;;;5062454;28;20036;-83
2022/04/02 10:52:30;;;;;;;5.22;2.05;;;;;;;;;;5079830;28;20031;-85
2022/04/02 10:54:56;;;;;;;3.17;1.50;;;;;;;;;;5078900;28;20391;-86
2022/04/02 10:57:22;;;;;;;3.33;1.33;;;;;;;;;;5062898;28;20032;-86
2022/04/02 10:59:48;;;;;;;2.85;1.58;;;;;;;;;;5062253;28;20047;-90
2022/04/02 11:02:22;;;;;;;3.25;1.58;;;;;;;;;;5096943;28;20032;-95
2022/04/02 11:04:59;;;;;;;2.83;1.60;;;;;;;;;;5079901;28;20024;-83
2022/04/02 11:07:35;;;;;;;1.58;1.23;;;;;;;;;;5080360;28;20133;-88
2022/04/02 11:10:01;;;;;;;2.08;1.30;;;;;;;;;;5080430;28;20100;-86
2022/04/02 11:12:33;;;;;;;3.00;1.52;;;;;;;;;;5076443;28;20395;-87
2022/04/02 11:15:12;;;;;;;2.05;1.40;;;;;;;;;;5060477;28;20056;-86
2022/04/02 11:17:44;;;;;;;1.38;1.20;;;;;;;;;;5059966;28;20032;-86
2022/04/02 11:20:19;;;;;;;1.10;1.00;;;;;;;;;;5058340;28;20110;-87
2022/04/02 11:22:51;;;;;;;2.40;1.20;;;;;;;;;;5073742;28;20119;-89
2022/04/02 11:25:24;;;;;;;1.35;1.25;;;;;;;;;;5075622;28;20035;-91
2022/04/02 11:27:59;;;;;;;;;;;;;;;;;;5076813;28;20390;-90
2022/04/02 11:30:29;;;;;;;2.65;1.25;;;;;;;;;;5058689;28;19916;-91
2022/04/02 11:33:05;;;;;;;3.92;1.35;;;;;;;;;;5075412;28;20052;-91
2022/04/02 11:35:31;;;;;;;1.70;1.27;;;;;;;;;;5057238;28;20024;-88
2022/04/02 11:38:20;;;;;;;2.97;1.40;;;;;;;;;;5072406;28;20479;-87
2022/04/02 11:41:16;;;;;;;1.95;1.45;;;;;;;;;;5073129;28;20131;-90
2022/04/02 11:43:44;;;;;;;1.70;1.20;;;;;;;;;;5074292;28;20027;-84
2022/04/02 11:46:12;;;;;;;1.58;1.20;;;;;;;;;;5056565;28;20111;-91
2022/04/02 11:48:55;;;;;;;1.77;1.20;;;;;;;;;;5077021;28;20440;-93
2022/04/02 11:51:27;;;;;;;1.45;1.23;;;;;;;;;;5078101;28;20046;-89
2022/04/02 11:54:08;;;;;;;2.45;1.08;;;;;;;;;;5062070;28;20329;-90
2022/04/02 11:56:35;;;;;;;6.65;1.17;;;;;;;;;;5078593;28;20032;-91
2022/04/02 11:59:06;;;;;;;2.28;1.20;;;;;;;;;;5079985;28;20107;-92
2022/04/02 12:01:44;;;;;;;1.90;1.20;;;;;;;;;;5081696;28;20050;-91
2022/04/02 12:04:14;;;;;;;1.35;1.02;;;;;;;;;;5064763;28;20096;-87
2022/04/02 12:06:45;;;;;;;1.45;1.02;;;;;;;;;;5067887;28;20032;-88
2022/04/02 12:09:11;;;;;;;1.13;1.02;;;;;;;;;;5087252;28;20471;-89
2022/04/02 12:11:38;;;;;;;1.10;0.90;;;;;;;;;;5071345;28;20035;-89
2022/04/02 12:14:05;;;;;;;0.85;0.85;;;;;;;;;;5090964;28;20027;-90
2022/04/02 12:16:31;;;;;;;1.70;1.10;;;;;;;;;;5110506;28;20042;-90
2022/04/02 12:19:02;;;;;;;5.32;1.23;;;;;;;;;;5091903;28;20024;-88
2022/04/02 12:21:36;;;;;;;1.90;1.00;;;;;;;;;;5074865;28;20024;-89
2022/04/02 12:24:03;;;;;;;3.33;1.10;;;;;;;;;;5068507;28;20020;-89
2022/04/02 12:26:29;;;;;;;1.02;0.90;;;;;;;;;;5084798;28;20024;-88
2022/04/02 12:29:00;;;;;;;1.80;0.90;;;;;;;;;;5064410;28;20023;-90
2022/04/02 12:31:27;;;;;;;2.05;1.00;;;;;;;;;;5079257;28;20046;-88
2022/04/02 12:33:54;;;;;;;1.85;1.02;;;;;;;;;;5076238;28;20016;-87
2022/04/02 12:36:32;;;;;;;0.85;0.82;;;;;;;;;;5075769;28;20420;-87
2022/04/02 12:39:09;;;;;;;1.10;1.00;;;;;;;;;;5058572;28;20059;-86
2022/04/02 12:41:46;;;;;;;1.98;1.02;;;;;;;;;;5058191;28;20031;-86
2022/04/02 12:44:12;;;;;;;0.93;0.90;;;;;;;;;;5075085;28;20035;-86
2022/04/02 12:46:37;;;;;;;0.88;0.80;;;;;;;;;;5075408;28;20024;-86
2022/04/02 12:49:03;;;;;;;1.30;1.00;;;;;;;;;;5093156;28;20032;-86
2022/04/02 12:51:29;;;;;;;1.52;1.00;;;;;;;;;;5075303;28;20032;-87
2022/04/02 12:54:03;;;;;;;1.27;0.90;;;;;;;;;;5075239;28;20024;-86
2022/04/02 12:56:32;;;;;;;1.08;0.88;;;;;;;;;;5075579;28;20047;-86
2022/04/02 12:58:58;;;;;;;3.30;1.00;;;;;;;;;;5077076;28;20024;-86
2022/04/02 13:01:30;;;;;;;2.67;0.95;;;;;;;;;;5059278;28;20035;-87
2022/04/02 13:03:59;;;;;;;2.55;1.00;;;;;;;;;;5094899;28;20451;-86
2022/04/02 13:06:28;;;;;;;1.45;1.08;;;;;;;;;;5093658;28;20052;-86
2022/04/02 13:09:04;;;;;;;0.80;0.80;;;;;;;;;;5059878;28;20127;-86
2022/04/02 13:11:51;;;;;;;4.43;1.48;;;;;;;;;;5059259;28;20027;-90
2022/04/02 13:14:18;;;;;;;1.88;1.02;;;;;;;;;;5093937;28;20024;-89
2022/04/02 13:16:48;;;;;;;2.03;1.00;;;;;;;;;;5075203;28;20070;-88
2022/04/02 13:22:16;;;;;;;1.83;0.90;;;;;;;;;;5082181;28;20030;-87
2022/04/02 13:24:52;;;;;;;3.17;1.10;;;;;;;;;;5099160;28;20020;-88
2022/04/02 13:27:33;;;;;;;3.22;1.15;;;;;;;;;;5080341;28;20423;-87
2022/04/02 13:30:14;;;;;;;1.40;1.10;;;;;;;;;;5099483;28;20020;-88
2022/04/02 13:33:16;;;;;;;1.23;1.10;;;;;;;;;;5079000;28;20102;-86
2022/04/02 13:35:50;;;;;;;1.42;0.88;;;;;;;;;;5098209;28;20016;-89
2022/04/02 13:38:21;;;;;;;1.10;0.90;;;;;;;;;;5097651;28;20032;-88
2022/04/02 13:40:50;;;;;;;1.05;0.90;;;;;;;;;;5080736;28;20057;-90
2022/04/02 13:43:31;;;;;;;1.00;0.90;;;;;;;;;;5078959;28;20095;-88
2022/04/02 13:45:59;;;;;;;1.40;1.00;;;;;;;;;;5079275;28;20028;-88
2022/04/02 13:48:26;;;;;;;0.90;0.90;;;;;;;;;;5061986;28;20043;-88
2022/04/02 13:51:09;;;;;;;1.23;1.10;;;;;;;;;;5061876;28;20113;-87
2022/04/02 13:53:40;;;;;;;1.25;1.08;;;;;;;;;;5046145;28;20064;-88
2022/04/02 13:56:13;;;;;;;3.05;1.23;;;;;;;;;;5078952;28;20519;-89
2022/04/02 13:58:47;;;;;;;1.20;1.10;;;;;;;;;;5078562;28;20447;-89
2022/04/02 14:01:20;;;;;;;1.10;0.90;;;;;;;;;;5082404;28;20535;-89
2022/04/02 14:03:48;;;;;;;1.85;1.20;;;;;;;;;;5083574;28;20105;-89
2022/04/02 14:06:14;;;;;;;1.45;1.10;;;;;;;;;;5079315;28;20032;-90
2022/04/02 14:08:56;;;;;;;1.80;0.82;;;;;;;;;;5079009;28;20031;-91
2022/04/02 14:11:31;;;;;;;1.58;1.02;;;;;;;;;;5096906;28;20105;-90
2022/04/02 14:14:22;;;;;;;1.65;1.20;;;;;;;;;;5079330;28;20047;-88
2022/04/02 14:17:15;;;;;;;1.10;1.00;;;;;;;;;;5081938;28;20036;-87
2022/04/02 14:19:42;;;;;;;1.20;1.10;;;;;;;;;;5076192;28;20123;-87
2022/04/02 14:22:09;;;;;;;2.40;1.00;;;;;;;;;;5062623;28;20442;-88
2022/04/02 14:24:53;;;;;;;1.35;0.90;;;;;;;;;;5061867;28;20016;-88
2022/04/02 14:27:24;;;;;;;1.52;1.27;;;;;;;;;;5097682;28;20024;-89
2022/04/02 14:29:52;;;;;;;0.90;0.90;;;;;;;;;;5098604;28;20028;-89
2022/04/02 14:32:53;;;;;;;1.33;1.10;;;;;;;;;;5097418;28;20039;-87
2022/04/02 14:35:40;;;;;;;2.85;1.27;;;;;;;;;;5064875;28;20028;-84
2022/04/02 14:38:24;;;;;;;2.65;1.15;;;;;;;;;;5098468;28;20020;-89
2022/04/02 14:41:06;;;;;;;1.65;1.00;;;;;;;;;;5097332;28;20032;-87
2022/04/02 14:44:09;;;;;;;1.48;0.90;;;;;;;;;;5080088;28;20115;-87
2022/04/02 14:47:12;;;;;;;2.28;1.00;;;;;;;;;;5062074;28;20119;-89
2022/04/02 14:49:50;;;;;;;1.02;0.95;;;;;;;;;;5082949;28;20461;-93
2022/04/02 14:52:24;;;;;;;1.98;1.30;;;;;;;;;;5098119;28;20024;-92
2022/04/02 14:55:02;;;;;;;1.23;1.10;;;;;;;;;;5098428;28;20086;-88
2022/04/02 14:57:50;;;;;;;3.72;1.40;;;;;;;;;;5061867;28;20024;-92
2022/04/02 15:00:54;;;;;;;1.55;1.15;;;;;;;;;;5083966;28;20008;-93
2022/04/02 15:04:03;;;;;;;4.68;1.58;;;;;;;;;;5051867;28;20055;-92
2022/04/02 15:06:52;;;;;;;2.60;1.25;;;;;;;;;;5077798;28;20048;-89
2022/04/02 15:09:42;;;;;;;1.20;1.10;;;;;;;;;;5054897;28;20070;-89
2022/04/02 15:12:09;;;;;;;2.92;1.10;;;;;;;;;;5086608;28;20040;-90